EJM68 07FA-MYEH
Flight info
| Callsign | EJM68 |
|---|---|
| Flight time | 0h 59m |
| Altitude | 29000 |
| Route | LEEVI DCT OHBEE |
| Aircraft | C680/M-SDFGHRWY/SB1 |
Departure
| Time | 2026-05-06 01:02 |
|---|---|
| Airport | Ocean Reef Club Airport (07FA) |
Arrival
| Time | 2026-05-06 02:02 |
|---|---|
| Airport | North Eleuthera Airport (MYEH) |
| Time | Latitude | Longitude | Altitude | Speed | Heading |
|---|---|---|---|---|---|
| 2026-05-06 00:58 | 25.89540 | -80.26292 | 2123 ft | 175 kts | 120° |
| 2026-05-06 00:58 | 25.88917 | -80.25155 | 3452 ft | 171 kts | 120° |
| 2026-05-06 00:59 | 25.88274 | -80.24037 | 4598 ft | 176 kts | 134° |
| 2026-05-06 00:59 | 25.87111 | -80.23476 | 5391 ft | 197 kts | 182° |
| 2026-05-06 00:59 | 25.85828 | -80.24013 | 6331 ft | 202 kts | 215° |
| 2026-05-06 00:59 | 25.84596 | -80.24851 | 7336 ft | 214 kts | 210° |
| 2026-05-06 01:00 | 25.83161 | -80.25518 | 7981 ft | 240 kts | 203° |
| 2026-05-06 01:00 | 25.81554 | -80.26125 | 7993 ft | 241 kts | 201° |
| 2026-05-06 01:00 | 25.80004 | -80.26725 | 7990 ft | 231 kts | 203° |
| 2026-05-06 01:00 | 25.78523 | -80.27348 | 7991 ft | 225 kts | 204° |
| 2026-05-06 01:01 | 25.77064 | -80.27964 | 7993 ft | 225 kts | 204° |
| 2026-05-06 01:01 | 25.75566 | -80.28586 | 8000 ft | 238 kts | 203° |
| 2026-05-06 01:01 | 25.73929 | -80.29265 | 8007 ft | 263 kts | 203° |
| 2026-05-06 01:01 | 25.72170 | -80.29992 | 8008 ft | 274 kts | 202° |
| 2026-05-06 01:02 | 25.70381 | -80.30728 | 8007 ft | 275 kts | 203° |
| 2026-05-06 01:02 | 25.69192 | -80.31219 | 8096 ft | 273 kts | 203° |
| 2026-05-06 01:02 | 25.67419 | -80.31952 | 8454 ft | 274 kts | 203° |
| 2026-05-06 01:02 | 25.65574 | -80.32720 | 8495 ft | 288 kts | 203° |
| 2026-05-06 01:03 | 25.63134 | -80.33724 | 8493 ft | 278 kts | 203° |
| 2026-05-06 01:03 | 25.61903 | -80.34231 | 8491 ft | 279 kts | 203° |
| 2026-05-06 01:03 | 25.60089 | -80.34982 | 8492 ft | 278 kts | 203° |
| 2026-05-06 01:03 | 25.58306 | -80.35717 | 8835 ft | 266 kts | 203° |
| 2026-05-06 01:04 | 25.56495 | -80.36443 | 9002 ft | 291 kts | 202° |
| 2026-05-06 01:04 | 25.54593 | -80.37177 | 9023 ft | 283 kts | 202° |
| 2026-05-06 01:04 | 25.52769 | -80.37839 | 9026 ft | 281 kts | 201° |
| 2026-05-06 01:04 | 25.50876 | -80.38496 | 8838 ft | 286 kts | 200° |
| 2026-05-06 01:05 | 25.48988 | -80.39118 | 8704 ft | 281 kts | 199° |
| 2026-05-06 01:05 | 25.47097 | -80.39702 | 8491 ft | 283 kts | 198° |
| 2026-05-06 01:05 | 25.45200 | -80.40253 | 8236 ft | 280 kts | 197° |
| 2026-05-06 01:05 | 25.43317 | -80.40758 | 7987 ft | 278 kts | 195° |
| 2026-05-06 01:06 | 25.41423 | -80.41223 | 7681 ft | 279 kts | 194° |
| 2026-05-06 01:06 | 25.39526 | -80.41647 | 7373 ft | 277 kts | 193° |
| 2026-05-06 01:06 | 25.37636 | -80.42023 | 7073 ft | 275 kts | 192° |
| 2026-05-06 01:06 | 25.35751 | -80.42349 | 6754 ft | 274 kts | 190° |
| 2026-05-06 01:07 | 25.33859 | -80.42624 | 6434 ft | 274 kts | 188° |
| 2026-05-06 01:07 | 25.31961 | -80.42849 | 6089 ft | 273 kts | 187° |
| 2026-05-06 01:07 | 25.30135 | -80.43246 | 5646 ft | 272 kts | 199° |
| 2026-05-06 01:07 | 25.28375 | -80.44112 | 4912 ft | 279 kts | 208° |
| 2026-05-06 01:08 | 25.26655 | -80.45126 | 4332 ft | 277 kts | 210° |
| 2026-05-06 01:08 | 25.25002 | -80.46135 | 4008 ft | 267 kts | 210° |
| 2026-05-06 01:08 | 25.23287 | -80.46815 | 3598 ft | 262 kts | 186° |
| 2026-05-06 01:08 | 25.21542 | -80.46421 | 3184 ft | 256 kts | 152° |
| 2026-05-06 01:09 | 25.20323 | -80.45058 | 2775 ft | 250 kts | 118° |
| 2026-05-06 01:09 | 25.20028 | -80.43209 | 2361 ft | 246 kts | 84° |
| 2026-05-06 01:09 | 25.20543 | -80.41426 | 1974 ft | 243 kts | 62° |
| 2026-05-06 01:09 | 25.21606 | -80.39998 | 1610 ft | 240 kts | 45° |
| 2026-05-06 01:10 | 25.22732 | -80.38737 | 1588 ft | 222 kts | 49° |
| 2026-05-06 01:10 | 25.23625 | -80.37421 | 1593 ft | 208 kts | 57° |
| 2026-05-06 01:10 | 25.24390 | -80.36115 | 1590 ft | 204 kts | 57° |
| 2026-05-06 01:10 | 25.25180 | -80.34818 | 1593 ft | 204 kts | 56° |
| 2026-05-06 01:11 | 25.25998 | -80.33525 | 1599 ft | 205 kts | 56° |
| 2026-05-06 01:11 | 25.26936 | -80.32314 | 1384 ft | 214 kts | 41° |
| 2026-05-06 01:11 | 25.28133 | -80.31313 | 1108 ft | 214 kts | 37° |
| 2026-05-06 01:11 | 25.29247 | -80.30387 | 849 ft | 179 kts | 38° |
| 2026-05-06 01:12 | 25.30109 | -80.29630 | 699 ft | 149 kts | 40° |
| 2026-05-06 01:12 | 25.30870 | -80.28946 | 419 ft | 131 kts | 40° |
| 2026-05-06 01:12 | 25.31545 | -80.28352 | 169 ft | 117 kts | 40° |
| 2026-05-06 01:12 | 25.32145 | -80.27827 | 11 ft | 101 kts | 41° |
| 2026-05-06 01:13 | 25.32625 | -80.27404 | 9 ft | 72 kts | 39° |
| 2026-05-06 01:13 | 25.32875 | -80.27183 | 8 ft | 12 kts | 57° |
| 2026-05-06 01:13 | 25.32886 | -80.27169 | 8 ft | 1 kts | 342° |
| 2026-05-06 01:13 | 25.32867 | -80.27191 | 8 ft | 11 kts | 211° |
| 2026-05-06 01:14 | 25.32597 | -80.27424 | 8 ft | 31 kts | 215° |
| 2026-05-06 01:14 | 25.32418 | -80.27581 | 7 ft | 34 kts | 221° |
| 2026-05-06 01:14 | 25.32221 | -80.27749 | 7 ft | 37 kts | 214° |
| 2026-05-06 01:15 | 25.32079 | -80.27883 | 8 ft | 25 kts | 217° |
| 2026-05-06 01:15 | 25.32014 | -80.27936 | 10 ft | 0 kts | 199° |
| 2026-05-06 01:15 | 25.32001 | -80.27913 | 10 ft | 1 kts | 90° |
| 2026-05-06 01:15 | 25.32008 | -80.27893 | 10 ft | 0 kts | 344° |
| 2026-05-06 01:16 | 25.32009 | -80.27895 | 10 ft | 0 kts | 310° |
| 2026-05-06 01:21 | 25.32015 | -80.27904 | 9 ft | 4 kts | 310° |
| 2026-05-06 01:21 | 25.32020 | -80.27911 | 9 ft | 2 kts | 298° |
| 2026-05-06 01:22 | 25.32009 | -80.27934 | 10 ft | 4 kts | 213° |
| 2026-05-06 01:22 | 25.31977 | -80.27957 | 11 ft | 6 kts | 212° |
| 2026-05-06 01:22 | 25.31959 | -80.27979 | 11 ft | 1 kts | 324° |
| 2026-05-06 01:22 | 25.31961 | -80.27978 | 11 ft | 0 kts | 21° |
| 2026-05-06 01:23 | 25.32112 | -80.27852 | 8 ft | 69 kts | 37° |
| 2026-05-06 01:23 | 25.32717 | -80.27327 | 175 ft | 139 kts | 39° |
| 2026-05-06 01:23 | 25.33572 | -80.26610 | 895 ft | 170 kts | 39° |
| 2026-05-06 01:23 | 25.34581 | -80.25745 | 1637 ft | 193 kts | 40° |
| 2026-05-06 01:24 | 25.35667 | -80.24807 | 2368 ft | 201 kts | 39° |
| 2026-05-06 01:24 | 25.36791 | -80.23822 | 3100 ft | 211 kts | 40° |
| 2026-05-06 01:24 | 25.37610 | -80.22521 | 3777 ft | 211 kts | 68° |
| 2026-05-06 01:24 | 25.38025 | -80.20914 | 4508 ft | 220 kts | 74° |
| 2026-05-06 01:25 | 25.38387 | -80.19276 | 5234 ft | 223 kts | 75° |
| 2026-05-06 01:25 | 25.38750 | -80.17607 | 5964 ft | 226 kts | 75° |
| 2026-05-06 01:25 | 25.39133 | -80.15901 | 6696 ft | 228 kts | 74° |
| 2026-05-06 01:25 | 25.39519 | -80.14178 | 7396 ft | 237 kts | 75° |
| 2026-05-06 01:26 | 25.39918 | -80.12386 | 8110 ft | 239 kts | 75° |
| 2026-05-06 01:26 | 25.40277 | -80.10584 | 8840 ft | 244 kts | 79° |
| 2026-05-06 01:26 | 25.40526 | -80.08682 | 9593 ft | 253 kts | 81° |
| 2026-05-06 01:26 | 25.40793 | -80.06751 | 10312 ft | 255 kts | 79° |
| 2026-05-06 01:27 | 25.41110 | -80.04797 | 11011 ft | 261 kts | 78° |
| 2026-05-06 01:27 | 25.41448 | -80.02742 | 11495 ft | 291 kts | 78° |
| 2026-05-06 01:27 | 25.41820 | -80.00382 | 11514 ft | 329 kts | 79° |
| 2026-05-06 01:27 | 25.42201 | -79.97885 | 12436 ft | 324 kts | 79° |
| 2026-05-06 01:28 | 25.42575 | -79.95453 | 13905 ft | 322 kts | 78° |
| 2026-05-06 01:28 | 25.42968 | -79.92981 | 14780 ft | 329 kts | 78° |
| 2026-05-06 01:28 | 25.43365 | -79.90464 | 15726 ft | 335 kts | 78° |
| 2026-05-06 01:28 | 25.43760 | -79.87907 | 16641 ft | 340 kts | 78° |
| 2026-05-06 01:29 | 25.44165 | -79.85301 | 17546 ft | 346 kts | 78° |
| 2026-05-06 01:29 | 25.44577 | -79.82659 | 18414 ft | 351 kts | 78° |
| 2026-05-06 01:29 | 25.44994 | -79.79973 | 19147 ft | 357 kts | 77° |
| 2026-05-06 01:29 | 25.45417 | -79.77244 | 19854 ft | 363 kts | 77° |
| 2026-05-06 01:30 | 25.45848 | -79.74465 | 20550 ft | 369 kts | 77° |
| 2026-05-06 01:30 | 25.46285 | -79.71642 | 21239 ft | 375 kts | 77° |
| 2026-05-06 01:30 | 25.46728 | -79.68777 | 21922 ft | 381 kts | 77° |
| 2026-05-06 01:30 | 25.47177 | -79.65867 | 22597 ft | 386 kts | 76° |
| 2026-05-06 01:31 | 25.47632 | -79.62916 | 23259 ft | 392 kts | 76° |
| 2026-05-06 01:31 | 25.48093 | -79.59918 | 23867 ft | 397 kts | 76° |
| 2026-05-06 01:31 | 25.48557 | -79.56893 | 24456 ft | 400 kts | 76° |
| 2026-05-06 01:31 | 25.49023 | -79.53851 | 25054 ft | 403 kts | 76° |
| 2026-05-06 01:32 | 25.49493 | -79.50788 | 25642 ft | 405 kts | 76° |
| 2026-05-06 01:32 | 25.49966 | -79.47702 | 26207 ft | 408 kts | 75° |
| 2026-05-06 01:32 | 25.50441 | -79.44592 | 26756 ft | 411 kts | 75° |
| 2026-05-06 01:32 | 25.50918 | -79.41463 | 27304 ft | 413 kts | 75° |
| 2026-05-06 01:33 | 25.51398 | -79.38314 | 27820 ft | 416 kts | 75° |
| 2026-05-06 01:33 | 25.51874 | -79.35186 | 28321 ft | 418 kts | 75° |
| 2026-05-06 01:33 | 25.52353 | -79.32021 | 28966 ft | 417 kts | 75° |
| 2026-05-06 01:33 | 25.52844 | -79.28806 | 29046 ft | 431 kts | 75° |
| 2026-05-06 01:34 | 25.53354 | -79.25481 | 29050 ft | 445 kts | 75° |
| 2026-05-06 01:34 | 25.53837 | -79.22030 | 29047 ft | 460 kts | 78° |
| 2026-05-06 01:34 | 25.53907 | -79.18420 | 29050 ft | 477 kts | 88° |
| 2026-05-06 01:34 | 25.53760 | -79.14713 | 29052 ft | 488 kts | 88° |
| 2026-05-06 01:35 | 25.53501 | -79.07070 | 29053 ft | 505 kts | 88° |
| 2026-05-06 01:35 | 25.53233 | -78.99262 | 29064 ft | 508 kts | 89° |
| 2026-05-06 01:36 | 25.52954 | -78.91432 | 29061 ft | 509 kts | 88° |
| 2026-05-06 01:36 | 25.52680 | -78.83584 | 28804 ft | 514 kts | 88° |
| 2026-05-06 01:37 | 25.52535 | -78.79684 | 28426 ft | 510 kts | 89° |
| 2026-05-06 01:37 | 25.52390 | -78.75796 | 28045 ft | 502 kts | 89° |
| 2026-05-06 01:37 | 25.52251 | -78.71897 | 27665 ft | 498 kts | 89° |
| 2026-05-06 01:37 | 25.52116 | -78.68120 | 27307 ft | 496 kts | 89° |
| 2026-05-06 01:38 | 25.51974 | -78.64315 | 26938 ft | 495 kts | 89° |
| 2026-05-06 01:38 | 25.51829 | -78.60514 | 26579 ft | 493 kts | 89° |
| 2026-05-06 01:38 | 25.51687 | -78.56733 | 26224 ft | 490 kts | 89° |
| 2026-05-06 01:38 | 25.51547 | -78.52980 | 25871 ft | 485 kts | 90° |
| 2026-05-06 01:39 | 25.51405 | -78.49244 | 25520 ft | 484 kts | 90° |
| 2026-05-06 01:39 | 25.51262 | -78.45529 | 25178 ft | 483 kts | 90° |
| 2026-05-06 01:39 | 25.51119 | -78.41819 | 24839 ft | 480 kts | 90° |
| 2026-05-06 01:39 | 25.50975 | -78.38134 | 24503 ft | 477 kts | 90° |
| 2026-05-06 01:40 | 25.50832 | -78.34472 | 24171 ft | 474 kts | 90° |
| 2026-05-06 01:40 | 25.50689 | -78.30834 | 23843 ft | 471 kts | 90° |
| 2026-05-06 01:40 | 25.50546 | -78.27223 | 23495 ft | 469 kts | 90° |
| 2026-05-06 01:40 | 25.50403 | -78.23631 | 23101 ft | 466 kts | 90° |
| 2026-05-06 01:41 | 25.50260 | -78.20060 | 22714 ft | 463 kts | 90° |
| 2026-05-06 01:41 | 25.50117 | -78.16510 | 22333 ft | 460 kts | 90° |
| 2026-05-06 01:41 | 25.49974 | -78.12988 | 21957 ft | 456 kts | 90° |
| 2026-05-06 01:41 | 25.49833 | -78.09535 | 21589 ft | 453 kts | 90° |
| 2026-05-06 01:42 | 25.49690 | -78.06064 | 21224 ft | 450 kts | 91° |
| 2026-05-06 01:42 | 25.49548 | -78.02611 | 20860 ft | 446 kts | 91° |
| 2026-05-06 01:42 | 25.49406 | -77.99197 | 20503 ft | 443 kts | 91° |
| 2026-05-06 01:42 | 25.49265 | -77.95801 | 20149 ft | 440 kts | 91° |
| 2026-05-06 01:43 | 25.49124 | -77.92435 | 19805 ft | 437 kts | 91° |
| 2026-05-06 01:43 | 25.48982 | -77.89089 | 19459 ft | 433 kts | 91° |
| 2026-05-06 01:43 | 25.48841 | -77.85764 | 19117 ft | 430 kts | 91° |
| 2026-05-06 01:43 | 25.48701 | -77.82467 | 18779 ft | 427 kts | 91° |
| 2026-05-06 01:44 | 25.48560 | -77.79196 | 18445 ft | 424 kts | 91° |
| 2026-05-06 01:44 | 25.48420 | -77.75946 | 18072 ft | 421 kts | 91° |
| 2026-05-06 01:44 | 25.48281 | -77.72713 | 17688 ft | 418 kts | 91° |
| 2026-05-06 01:44 | 25.48141 | -77.69502 | 17306 ft | 416 kts | 91° |
| 2026-05-06 01:45 | 25.48003 | -77.66352 | 16933 ft | 413 kts | 91° |
| 2026-05-06 01:45 | 25.47864 | -77.63188 | 16565 ft | 411 kts | 91° |
| 2026-05-06 01:45 | 25.47724 | -77.60038 | 16202 ft | 409 kts | 92° |
| 2026-05-06 01:45 | 25.47586 | -77.56902 | 15835 ft | 406 kts | 92° |
| 2026-05-06 01:46 | 25.47447 | -77.53784 | 15475 ft | 404 kts | 92° |
| 2026-05-06 01:46 | 25.47307 | -77.50693 | 15188 ft | 402 kts | 92° |
| 2026-05-06 01:46 | 25.47168 | -77.47582 | 14677 ft | 404 kts | 92° |
| 2026-05-06 01:46 | 25.47028 | -77.44506 | 14152 ft | 395 kts | 92° |
| 2026-05-06 01:47 | 25.46893 | -77.41526 | 13617 ft | 380 kts | 93° |
| 2026-05-06 01:47 | 25.46763 | -77.38677 | 13118 ft | 361 kts | 93° |
| 2026-05-06 01:47 | 25.46638 | -77.35961 | 12653 ft | 346 kts | 93° |
| 2026-05-06 01:47 | 25.46519 | -77.33353 | 12208 ft | 333 kts | 93° |
| 2026-05-06 01:48 | 25.46404 | -77.30866 | 11786 ft | 323 kts | 93° |
| 2026-05-06 01:48 | 25.46290 | -77.28419 | 11367 ft | 314 kts | 93° |
| 2026-05-06 01:48 | 25.46215 | -77.26798 | 11092 ft | 311 kts | 93° |
| 2026-05-06 01:48 | 25.46067 | -77.23642 | 10551 ft | 309 kts | 93° |
| 2026-05-06 01:49 | 25.45957 | -77.21271 | 10143 ft | 309 kts | 93° |
| 2026-05-06 01:49 | 25.45845 | -77.18894 | 9718 ft | 309 kts | 94° |
| 2026-05-06 01:49 | 25.45743 | -77.16746 | 9337 ft | 307 kts | 94° |
| 2026-05-06 01:49 | 25.45632 | -77.14405 | 8932 ft | 303 kts | 94° |
| 2026-05-06 01:50 | 25.45523 | -77.12093 | 8534 ft | 299 kts | 94° |
| 2026-05-06 01:50 | 25.45414 | -77.09807 | 8141 ft | 296 kts | 94° |
| 2026-05-06 01:50 | 25.45306 | -77.07544 | 7752 ft | 293 kts | 94° |
| 2026-05-06 01:50 | 25.45198 | -77.05303 | 7366 ft | 290 kts | 94° |
| 2026-05-06 01:51 | 25.45092 | -77.03090 | 6989 ft | 287 kts | 94° |
| 2026-05-06 01:51 | 25.44986 | -77.00898 | 6611 ft | 284 kts | 94° |
| 2026-05-06 01:51 | 25.44881 | -76.98729 | 6225 ft | 281 kts | 94° |
| 2026-05-06 01:51 | 25.44778 | -76.96587 | 5847 ft | 277 kts | 94° |
| 2026-05-06 01:52 | 25.44674 | -76.94470 | 5487 ft | 274 kts | 94° |
| 2026-05-06 01:52 | 25.44571 | -76.92364 | 5126 ft | 273 kts | 94° |
| 2026-05-06 01:52 | 25.44469 | -76.90267 | 4763 ft | 272 kts | 94° |
| 2026-05-06 01:52 | 25.44366 | -76.88183 | 4398 ft | 271 kts | 94° |
| 2026-05-06 01:53 | 25.44264 | -76.86108 | 4037 ft | 270 kts | 94° |
| 2026-05-06 01:53 | 25.44162 | -76.84043 | 3686 ft | 266 kts | 94° |
| 2026-05-06 01:53 | 25.44063 | -76.82045 | 3342 ft | 260 kts | 94° |
| 2026-05-06 01:53 | 25.43967 | -76.80070 | 3023 ft | 253 kts | 93° |
| 2026-05-06 01:54 | 25.43951 | -76.78190 | 3005 ft | 235 kts | 91° |
| 2026-05-06 01:54 | 25.43922 | -76.76439 | 3001 ft | 221 kts | 92° |
| 2026-05-06 01:54 | 25.43892 | -76.74767 | 2997 ft | 214 kts | 92° |
| 2026-05-06 01:54 | 25.43868 | -76.73127 | 3001 ft | 213 kts | 92° |
| 2026-05-06 01:55 | 25.43845 | -76.71477 | 2994 ft | 216 kts | 92° |
| 2026-05-06 01:55 | 25.43821 | -76.69803 | 2995 ft | 218 kts | 92° |
| 2026-05-06 01:55 | 25.43797 | -76.68119 | 2996 ft | 219 kts | 92° |
| 2026-05-06 01:55 | 25.43772 | -76.66437 | 2996 ft | 219 kts | 92° |
| 2026-05-06 01:56 | 25.43747 | -76.64756 | 3002 ft | 219 kts | 92° |
| 2026-05-06 01:56 | 25.43724 | -76.63071 | 3001 ft | 219 kts | 92° |
| 2026-05-06 01:56 | 25.43698 | -76.61389 | 3001 ft | 218 kts | 92° |
| 2026-05-06 01:56 | 25.43676 | -76.59710 | 3002 ft | 218 kts | 91° |
| 2026-05-06 01:57 | 25.43658 | -76.58031 | 3002 ft | 218 kts | 91° |
| 2026-05-06 01:57 | 25.43643 | -76.56351 | 3000 ft | 218 kts | 90° |
| 2026-05-06 01:57 | 25.44009 | -76.54761 | 2992 ft | 218 kts | 63° |
| 2026-05-06 01:57 | 25.44972 | -76.53486 | 2991 ft | 216 kts | 38° |
| 2026-05-06 01:58 | 25.46252 | -76.52811 | 2991 ft | 200 kts | 13° |
| 2026-05-06 01:58 | 25.47685 | -76.52746 | 2841 ft | 211 kts | 349° |
| 2026-05-06 01:58 | 25.49000 | -76.53336 | 2599 ft | 199 kts | 325° |
| 2026-05-06 01:58 | 25.49968 | -76.54415 | 2345 ft | 200 kts | 302° |
| 2026-05-06 01:59 | 25.50480 | -76.55819 | 2083 ft | 195 kts | 280° |
| 2026-05-06 01:59 | 25.50471 | -76.57309 | 1829 ft | 195 kts | 260° |
| 2026-05-06 01:59 | 25.50223 | -76.58786 | 1575 ft | 195 kts | 259° |
| 2026-05-06 01:59 | 25.49997 | -76.60257 | 1317 ft | 193 kts | 260° |
| 2026-05-06 02:00 | 25.49793 | -76.61685 | 1069 ft | 179 kts | 261° |
| 2026-05-06 02:00 | 25.49474 | -76.62868 | 996 ft | 144 kts | 247° |
| 2026-05-06 02:00 | 25.49116 | -76.63853 | 863 ft | 134 kts | 248° |
| 2026-05-06 02:00 | 25.48791 | -76.64762 | 664 ft | 123 kts | 248° |
| 2026-05-06 02:01 | 25.48478 | -76.65639 | 450 ft | 123 kts | 249° |
| 2026-05-06 02:01 | 25.48167 | -76.66522 | 248 ft | 123 kts | 249° |
| 2026-05-06 02:01 | 25.47840 | -76.67390 | 33 ft | 117 kts | 248° |
| 2026-05-06 02:01 | 25.47569 | -76.68133 | 0 ft | 89 kts | 248° |
| 2026-05-06 02:02 | 25.47498 | -76.68326 | 1 ft | 3 kts | 248° |
| 2026-05-06 02:02 | 25.47489 | -76.68350 | 1 ft | 11 kts | 248° |
| 2026-05-06 02:02 | 25.47468 | -76.68444 | 1 ft | 12 kts | 296° |
| 2026-05-06 02:02 | 25.47490 | -76.68452 | 2 ft | 5 kts | 15° |
| 2026-05-06 02:03 | 25.47539 | -76.68437 | 3 ft | 9 kts | 15° |
| 2026-05-06 02:03 | 25.47552 | -76.68432 | 3 ft | 0 kts | 36° |